sensor_id;sensor_type;location;lat;lon;timestamp;pressure;altitude;pressure_sealevel;temperature;humidity
65754;BME280;52488;47.502;18.940;2023-01-16T00:00:05;97433.16;;;4.51;100.00
65754;BME280;52488;47.502;18.940;2023-01-16T00:01:08;97422.81;;;4.49;100.00
65754;BME280;52488;47.502;18.940;2023-01-16T00:02:11;97419.13;;;4.55;100.00
65754;BME280;52488;47.502;18.940;2023-01-16T00:03:14;97415.69;;;4.54;100.00
65754;BME280;52488;47.502;18.940;2023-01-16T00:04:17;97412.81;;;4.52;100.00
65754;BME280;52488;47.502;18.940;2023-01-16T00:05:20;97418.66;;;4.48;100.00
65754;BME280;52488;47.502;18.940;2023-01-16T00:06:23;97416.50;;;4.47;100.00
65754;BME280;52488;47.502;18.940;2023-01-16T00:07:26;97410.34;;;4.46;100.00
65754;BME280;52488;47.502;18.940;2023-01-16T00:08:29;97417.78;;;4.46;100.00
65754;BME280;52488;47.502;18.940;2023-01-16T00:09:31;97416.87;;;4.43;100.00
65754;BME280;52488;47.502;18.940;2023-01-16T00:10:34;97421.44;;;4.41;100.00
65754;BME280;52488;47.502;18.940;2023-01-16T00:11:37;97423.44;;;4.40;100.00
65754;BME280;52488;47.502;18.940;2023-01-16T00:12:40;97424.87;;;4.41;100.00
65754;BME280;52488;47.502;18.940;2023-01-16T00:13:43;97423.25;;;4.38;100.00
65754;BME280;52488;47.502;18.940;2023-01-16T00:14:46;97416.38;;;4.37;100.00
65754;BME280;52488;47.502;18.940;2023-01-16T00:15:50;97416.56;;;4.39;100.00
65754;BME280;52488;47.502;18.940;2023-01-16T00:16:53;97423.59;;;4.42;100.00
65754;BME280;52488;47.502;18.940;2023-01-16T00:17:56;97407.28;;;4.42;100.00
65754;BME280;52488;47.502;18.940;2023-01-16T00:18:59;97405.75;;;4.49;100.00
65754;BME280;52488;47.502;18.940;2023-01-16T00:20:02;97400.31;;;4.49;100.00
65754;BME280;52488;47.502;18.940;2023-01-16T00:21:06;97404.91;;;4.46;100.00
65754;BME280;52488;47.502;18.940;2023-01-16T00:22:09;97397.31;;;4.45;100.00
65754;BME280;52488;47.502;18.940;2023-01-16T00:23:11;97399.12;;;4.42;100.00
65754;BME280;52488;47.502;18.940;2023-01-16T00:24:14;97400.41;;;4.41;100.00
65754;BME280;52488;47.502;18.940;2023-01-16T00:25:17;97392.81;;;4.40;100.00
65754;BME280;52488;47.502;18.940;2023-01-16T00:26:20;97398.97;;;4.40;100.00
65754;BME280;52488;47.502;18.940;2023-01-16T00:27:23;97392.81;;;4.40;100.00
65754;BME280;52488;47.502;18.940;2023-01-16T00:28:26;97399.53;;;4.39;100.00
65754;BME280;52488;47.502;18.940;2023-01-16T00:29:29;97401.34;;;4.36;100.00
65754;BME280;52488;47.502;18.940;2023-01-16T00:30:32;97401.34;;;4.36;100.00
65754;BME280;52488;47.502;18.940;2023-01-16T00:31:35;97391.59;;;4.33;100.00
65754;BME280;52488;47.502;18.940;2023-01-16T00:32:38;97401.91;;;4.35;100.00
65754;BME280;52488;47.502;18.940;2023-01-16T00:33:41;97399.19;;;4.35;100.00
65754;BME280;52488;47.502;18.940;2023-01-16T00:34:45;97404.63;;;4.35;100.00
65754;BME280;52488;47.502;18.940;2023-01-16T00:35:47;97403.19;;;4.34;100.00
65754;BME280;52488;47.502;18.940;2023-01-16T00:36:51;97399.59;;;4.31;100.00
65754;BME280;52488;47.502;18.940;2023-01-16T00:37:54;97392.84;;;4.32;100.00
65754;BME280;52488;47.502;18.940;2023-01-16T00:38:57;97401.91;;;4.35;100.00
65754;BME280;52488;47.502;18.940;2023-01-16T00:40:00;97394.31;;;4.33;100.00
65754;BME280;52488;47.502;18.940;2023-01-16T00:41:03;97397.41;;;4.30;100.00
65754;BME280;52488;47.502;18.940;2023-01-16T00:42:07;97389.84;;;4.28;100.00
65754;BME280;52488;47.502;18.940;2023-01-16T00:43:10;97393.28;;;4.29;100.00
65754;BME280;52488;47.502;18.940;2023-01-16T00:44:13;97385.25;;;4.31;100.00
65754;BME280;52488;47.502;18.940;2023-01-16T00:45:16;97378.53;;;4.32;100.00
65754;BME280;52488;47.502;18.940;2023-01-16T00:46:20;97381.75;;;4.38;100.00
65754;BME280;52488;47.502;18.940;2023-01-16T00:47:22;97391.03;;;4.35;100.00
65754;BME280;52488;47.502;18.940;2023-01-16T00:48:25;97390.31;;;4.34;100.00
65754;BME280;52488;47.502;18.940;2023-01-16T00:49:28;97395.03;;;4.34;100.00
65754;BME280;52488;47.502;18.940;2023-01-16T00:50:31;97398.47;;;4.34;100.00
65754;BME280;52488;47.502;18.940;2023-01-16T00:51:34;97396.28;;;4.33;100.00
65754;BME280;52488;47.502;18.940;2023-01-16T00:52:37;97390.12;;;4.32;100.00
65754;BME280;52488;47.502;18.940;2023-01-16T00:53:40;97388.13;;;4.33;100.00
65754;BME280;52488;47.502;18.940;2023-01-16T00:54:43;97393.03;;;4.34;100.00
65754;BME280;52488;47.502;18.940;2023-01-16T00:55:46;97396.84;;;4.31;100.00
65754;BME280;52488;47.502;18.940;2023-01-16T00:56:49;97386.16;;;4.33;100.00
65754;BME280;52488;47.502;18.940;2023-01-16T00:57:52;97390.31;;;4.34;100.00
65754;BME280;52488;47.502;18.940;2023-01-16T00:58:55;97387.59;;;4.34;100.00
65754;BME280;52488;47.502;18.940;2023-01-16T00:59:58;97386.87;;;4.34;100.00
65754;BME280;52488;47.502;18.940;2023-01-16T01:01:01;97385.97;;;4.31;100.00
65754;BME280;52488;47.502;18.940;2023-01-16T01:02:05;97389.13;;;4.28;100.00
65754;BME280;52488;47.502;18.940;2023-01-16T01:03:08;97393.09;;;4.27;100.00
65754;BME280;52488;47.502;18.940;2023-01-16T01:04:12;97386.56;;;4.30;100.00
65754;BME280;52488;47.502;18.940;2023-01-16T01:05:15;97387.13;;;4.28;100.00
65754;BME280;52488;47.502;18.940;2023-01-16T01:06:18;97388.78;;;4.23;100.00
65754;BME280;52488;47.502;18.940;2023-01-16T01:07:21;97397.31;;;4.20;100.00
65754;BME280;52488;47.502;18.940;2023-01-16T01:08:24;97397.16;;;4.18;100.00
65754;BME280;52488;47.502;18.940;2023-01-16T01:09:27;97393.00;;;4.17;100.00
65754;BME280;52488;47.502;18.940;2023-01-16T01:10:30;97384.28;;;4.18;100.00
65754;BME280;52488;47.502;18.940;2023-01-16T01:11:33;97384.44;;;4.20;100.00
65754;BME280;52488;47.502;18.940;2023-01-16T01:12:36;97375.00;;;4.21;100.00
65754;BME280;52488;47.502;18.940;2023-01-16T01:13:39;97375.91;;;4.24;100.00
65754;BME280;52488;47.502;18.940;2023-01-16T01:14:42;97378.78;;;4.26;100.00
65754;BME280;52488;47.502;18.940;2023-01-16T01:15:45;97376.63;;;4.24;100.00
65754;BME280;52488;47.502;18.940;2023-01-16T01:16:48;97373.91;;;4.24;100.00
65754;BME280;52488;47.502;18.940;2023-01-16T01:17:51;97375.91;;;4.24;100.00
65754;BME280;52488;47.502;18.940;2023-01-16T01:18:54;97379.72;;;4.21;100.00
65754;BME280;52488;47.502;18.940;2023-01-16T01:20:15;97374.28;;;4.21;100.00
65754;BME280;52488;47.502;18.940;2023-01-16T01:21:18;97369.78;;;4.16;100.00
65754;BME280;52488;47.502;18.940;2023-01-16T01:22:21;97373.22;;;4.16;100.00
65754;BME280;52488;47.502;18.940;2023-01-16T01:23:24;97376.50;;;4.15;100.00
65754;BME280;52488;47.502;18.940;2023-01-16T01:24:27;97375.56;;;4.20;100.00
65754;BME280;52488;47.502;18.940;2023-01-16T01:25:29;97373.97;;;4.17;100.00
65754;BME280;52488;47.502;18.940;2023-01-16T01:26:32;97373.63;;;4.13;100.00
65754;BME280;52488;47.502;18.940;2023-01-16T01:27:35;97368.75;;;4.11;100.00
65754;BME280;52488;47.502;18.940;2023-01-16T01:28:38;97357.16;;;4.11;100.00
65754;BME280;52488;47.502;18.940;2023-01-16T01:29:41;97357.31;;;4.13;100.00
65754;BME280;52488;47.502;18.940;2023-01-16T01:30:44;97345.75;;;4.12;100.00
65754;BME280;52488;47.502;18.940;2023-01-16T01:31:47;97341.50;;;4.19;100.00
65754;BME280;52488;47.502;18.940;2023-01-16T01:32:50;97335.69;;;4.22;100.00
65754;BME280;52488;47.502;18.940;2023-01-16T01:33:53;97336.72;;;4.27;100.00
65754;BME280;52488;47.502;18.940;2023-01-16T01:34:55;97340.81;;;4.36;100.00
65754;BME280;52488;47.502;18.940;2023-01-16T01:35:59;97341.13;;;4.40;100.00
65754;BME280;52488;47.502;18.940;2023-01-16T01:37:04;97350.63;;;4.31;100.00
65754;BME280;52488;47.502;18.940;2023-01-16T01:38:07;97351.75;;;4.28;100.00
65754;BME280;52488;47.502;18.940;2023-01-16T01:39:10;97347.75;;;4.29;100.00
65754;BME280;52488;47.502;18.940;2023-01-16T01:40:13;97349.59;;;4.27;100.00
65754;BME280;52488;47.502;18.940;2023-01-16T01:41:16;97346.16;;;4.26;100.00
65754;BME280;52488;47.502;18.940;2023-01-16T01:42:20;97341.13;;;4.22;100.00
65754;BME280;52488;47.502;18.940;2023-01-16T01:43:45;97352.16;;;4.24;100.00
65754;BME280;52488;47.502;18.940;2023-01-16T01:44:55;97353.25;;;4.21;100.00
65754;BME280;52488;47.502;18.940;2023-01-16T01:45:59;97354.53;;;4.20;100.00
65754;BME280;52488;47.502;18.940;2023-01-16T01:47:02;97356.87;;;4.24;100.00
65754;BME280;52488;47.502;18.940;2023-01-16T01:49:27;97373.91;;;4.24;100.00
65754;BME280;52488;47.502;18.940;2023-01-16T01:51:10;97361.41;;;4.21;100.00
65754;BME280;52488;47.502;18.940;2023-01-16T01:52:06;97369.78;;;4.16;100.00
65754;BME280;52488;47.502;18.940;2023-01-16T01:53:25;97365.31;;;4.11;100.00
65754;BME280;52488;47.502;18.940;2023-01-16T01:54:37;97363.87;;;4.10;100.00
65754;BME280;52488;47.502;18.940;2023-01-16T01:55:42;97368.59;;;4.09;100.00
65754;BME280;52488;47.502;18.940;2023-01-16T01:57:54;97379.87;;;4.06;100.00
65754;BME280;52488;47.502;18.940;2023-01-16T01:59:12;97367.53;;;4.05;100.00
65754;BME280;52488;47.502;18.940;2023-01-16T02:00:20;97359.94;;;4.03;100.00
65754;BME280;52488;47.502;18.940;2023-01-16T02:01:24;97369.38;;;4.02;100.00
65754;BME280;52488;47.502;18.940;2023-01-16T02:02:32;97357.78;;;4.02;100.00
65754;BME280;52488;47.502;18.940;2023-01-16T02:03:45;97349.44;;;4.00;100.00
65754;BME280;52488;47.502;18.940;2023-01-16T02:04:49;97348.00;;;3.98;100.00
65754;BME280;52488;47.502;18.940;2023-01-16T02:05:57;97352.72;;;3.98;100.00
65754;BME280;52488;47.502;18.940;2023-01-16T02:07:08;97356.72;;;3.97;100.00
65754;BME280;52488;47.502;18.940;2023-01-16T02:08:17;97351.28;;;3.97;100.00
65754;BME280;52488;47.502;18.940;2023-01-16T02:09:22;97359.78;;;4.01;100.00
65754;BME280;52488;47.502;18.940;2023-01-16T02:10:29;97351.63;;;4.01;100.00
65754;BME280;52488;47.502;18.940;2023-01-16T02:11:45;97351.44;;;3.99;100.00
65754;BME280;52488;47.502;18.940;2023-01-16T02:12:51;97349.44;;;4.00;100.00
65754;BME280;52488;47.502;18.940;2023-01-16T02:13:57;97349.44;;;4.00;100.00
65754;BME280;52488;47.502;18.940;2023-01-16T02:15:02;97346.19;;;4.01;100.00
65754;BME280;52488;47.502;18.940;2023-01-16T02:16:05;97345.78;;;4.05;100.00
65754;BME280;52488;47.502;18.940;2023-01-16T02:17:27;97341.06;;;4.05;100.00
65754;BME280;52488;47.502;18.940;2023-01-16T02:18:49;97339.63;;;4.04;100.00
65754;BME280;52488;47.502;18.940;2023-01-16T02:20:31;97331.31;;;4.02;100.00
65754;BME280;52488;47.502;18.940;2023-01-16T02:24:27;97329.31;;;4.03;100.00
65754;BME280;52488;47.502;18.940;2023-01-16T02:29:07;97311.91;;;4.06;100.00
65754;BME280;52488;47.502;18.940;2023-01-16T02:32:02;97313.50;;;4.09;100.00
65754;BME280;52488;47.502;18.940;2023-01-16T02:33:24;97301.03;;;4.06;100.00
65754;BME280;52488;47.502;18.940;2023-01-16T02:35:02;97304.28;;;4.04;100.00
65754;BME280;52488;47.502;18.940;2023-01-16T02:39:09;97292.88;;;4.06;100.00
65754;BME280;52488;47.502;18.940;2023-01-16T02:46:06;97277.69;;;4.03;100.00
65754;BME280;52488;47.502;18.940;2023-01-16T02:47:18;97273.69;;;4.04;100.00
65754;BME280;52488;47.502;18.940;2023-01-16T02:54:11;97285.03;;;4.10;100.00
65754;BME280;52488;47.502;18.940;2023-01-16T02:55:19;97285.44;;;4.06;100.00
65754;BME280;52488;47.502;18.940;2023-01-16T02:56:43;97290.72;;;4.04;100.00
65754;BME280;52488;47.502;18.940;2023-01-16T02:57:53;97282.72;;;4.06;100.00
65754;BME280;52488;47.502;18.940;2023-01-16T02:58:57;97280.50;;;4.12;100.00
65754;BME280;52488;47.502;18.940;2023-01-16T03:00:03;97275.44;;;4.09;100.00
65754;BME280;52488;47.502;18.940;2023-01-16T03:01:07;97268.97;;;4.04;100.00
65754;BME280;52488;47.502;18.940;2023-01-16T03:02:12;97272.25;;;4.03;100.00
65754;BME280;52488;47.502;18.940;2023-01-16T03:04:55;97274.41;;;4.04;100.00
65754;BME280;52488;47.502;18.940;2023-01-16T03:06:27;97273.44;;;4.09;100.00
65754;BME280;52488;47.502;18.940;2023-01-16T03:13:41;97251.31;;;4.30;100.00
65754;BME280;52488;47.502;18.940;2023-01-16T03:16:21;97242.06;;;4.33;100.00
65754;BME280;52488;47.502;18.940;2023-01-16T03:20:11;97241.31;;;4.33;100.00
65754;BME280;52488;47.502;18.940;2023-01-16T03:22:24;97235.09;;;4.40;100.00
65754;BME280;52488;47.502;18.940;2023-01-16T03:23:12;97243.38;;;4.42;100.00
65754;BME280;52488;47.502;18.940;2023-01-16T03:25:52;97239.25;;;4.23;100.00
65754;BME280;52488;47.502;18.940;2023-01-16T03:27:57;97235.97;;;4.25;100.00
65754;BME280;52488;47.502;18.940;2023-01-16T03:28:34;97229.91;;;4.17;100.00
65754;BME280;52488;47.502;18.940;2023-01-16T03:29:59;97229.09;;;4.24;100.00
65754;BME280;52488;47.502;18.940;2023-01-16T03:32:37;97228.03;;;4.37;100.00
65754;BME280;52488;47.502;18.940;2023-01-16T03:34:01;97231.22;;;4.43;100.00
65754;BME280;52488;47.502;18.940;2023-01-16T03:35:21;97228.22;;;4.39;100.00
65754;BME280;52488;47.502;18.940;2023-01-16T03:36:33;97214.75;;;4.41;100.00
65754;BME280;52488;47.502;18.940;2023-01-16T03:37:40;97209.91;;;4.39;100.00
65754;BME280;52488;47.502;18.940;2023-01-16T03:38:45;97213.72;;;4.36;100.00
65754;BME280;52488;47.502;18.940;2023-01-16T03:40:00;97204.94;;;4.28;100.00
65754;BME280;52488;47.502;18.940;2023-01-16T03:41:09;97198.53;;;4.16;100.00
65754;BME280;52488;47.502;18.940;2023-01-16T03:42:23;97208.53;;;4.13;100.00
65754;BME280;52488;47.502;18.940;2023-01-16T03:43:31;97205.50;;;4.09;100.00
65754;BME280;52488;47.502;18.940;2023-01-16T03:44:39;97203.03;;;4.04;100.00
65754;BME280;52488;47.502;18.940;2023-01-16T03:46:03;97205.09;;;4.13;100.00
65754;BME280;52488;47.502;18.940;2023-01-16T03:47:15;97205.97;;;4.15;100.00
65754;BME280;52488;47.502;18.940;2023-01-16T03:48:36;97210.31;;;4.18;100.00
65754;BME280;52488;47.502;18.940;2023-01-16T03:49:48;97206.63;;;4.06;100.00
65754;BME280;52488;47.502;18.940;2023-01-16T03:50:55;97210.47;;;4.03;100.00
65754;BME280;52488;47.502;18.940;2023-01-16T03:52:02;97202.69;;;4.00;100.00
65754;BME280;52488;47.502;18.940;2023-01-16T03:53:10;97204.88;;;4.01;100.00
65754;BME280;52488;47.502;18.940;2023-01-16T03:56:50;97186.47;;;3.92;100.00
65754;BME280;52488;47.502;18.940;2023-01-16T03:58:04;97191.03;;;3.89;100.00
65754;BME280;52488;47.502;18.940;2023-01-16T03:59:08;97178.56;;;3.86;100.00
65754;BME280;52488;47.502;18.940;2023-01-16T04:00:11;97177.28;;;3.87;100.00
65754;BME280;52488;47.502;18.940;2023-01-16T04:01:26;97178.91;;;3.90;100.00
65754;BME280;52488;47.502;18.940;2023-01-16T04:03:04;97189.03;;;3.90;100.00
65754;BME280;52488;47.502;18.940;2023-01-16T04:05:38;97178.94;;;3.83;100.00
65754;BME280;52488;47.502;18.940;2023-01-16T04:08:09;97177.22;;;3.78;100.00
65754;BME280;52488;47.502;18.940;2023-01-16T04:09:21;97171.44;;;3.74;100.00
65754;BME280;52488;47.502;18.940;2023-01-16T04:10:31;97164.97;;;3.69;100.00
65754;BME280;52488;47.502;18.940;2023-01-16T04:11:36;97165.53;;;3.67;100.00
65754;BME280;52488;47.502;18.940;2023-01-16T04:12:51;97160.66;;;3.66;100.00
65754;BME280;52488;47.502;18.940;2023-01-16T04:13:56;97164.97;;;3.69;100.00
65754;BME280;52488;47.502;18.940;2023-01-16T04:15:05;97158.09;;;3.68;100.00
65754;BME280;52488;47.502;18.940;2023-01-16T04:16:10;97157.78;;;3.64;100.00
65754;BME280;52488;47.502;18.940;2023-01-16T04:17:17;97146.91;;;3.64;100.00
65754;BME280;52488;47.502;18.940;2023-01-16T04:18:24;97149.63;;;3.64;100.00
65754;BME280;52488;47.502;18.940;2023-01-16T04:19:30;97149.31;;;3.60;100.00
65754;BME280;52488;47.502;18.940;2023-01-16T04:20:35;97140.28;;;3.57;100.00
65754;BME280;52488;47.502;18.940;2023-01-16T04:21:47;97146.28;;;3.56;100.00
65754;BME280;52488;47.502;18.940;2023-01-16T04:22:50;97141.38;;;3.54;100.00
65754;BME280;52488;47.502;18.940;2023-01-16T04:23:55;97146.28;;;3.56;100.00
65754;BME280;52488;47.502;18.940;2023-01-16T04:25:03;97146.09;;;3.54;100.00
65754;BME280;52488;47.502;18.940;2023-01-16T04:26:07;97136.53;;;3.53;100.00
65754;BME280;52488;47.502;18.940;2023-01-16T04:27:10;97142.44;;;3.59;100.00
65754;BME280;52488;47.502;18.940;2023-01-16T04:28:14;97136.13;;;3.56;100.00
65754;BME280;52488;47.502;18.940;2023-01-16T04:29:17;97131.25;;;3.55;100.00
65754;BME280;52488;47.502;18.940;2023-01-16T04:30:20;97129.66;;;3.52;100.00
65754;BME280;52488;47.502;18.940;2023-01-16T04:31:24;97131.66;;;3.51;100.00
65754;BME280;52488;47.502;18.940;2023-01-16T04:32:27;97124.94;;;3.52;100.00
65754;BME280;52488;47.502;18.940;2023-01-16T04:33:30;97126.00;;;3.57;100.00
65754;BME280;52488;47.502;18.940;2023-01-16T04:34:32;97128.69;;;3.57;100.00
65754;BME280;52488;47.502;18.940;2023-01-16T04:35:36;97131.00;;;3.60;100.00
65754;BME280;52488;47.502;18.940;2023-01-16T04:36:39;97130.47;;;3.62;100.00
65754;BME280;52488;47.502;18.940;2023-01-16T04:37:42;97136.44;;;3.60;100.00
65754;BME280;52488;47.502;18.940;2023-01-16T04:38:45;97141.16;;;3.60;100.00
65754;BME280;52488;47.502;18.940;2023-01-16T04:39:47;97132.53;;;3.54;100.00
65754;BME280;52488;47.502;18.940;2023-01-16T04:40:55;97133.25;;;3.54;100.00
65754;BME280;52488;47.502;18.940;2023-01-16T04:41:58;97130.53;;;3.54;100.00
65754;BME280;52488;47.502;18.940;2023-01-16T04:43:01;97127.41;;;3.58;100.00
65754;BME280;52488;47.502;18.940;2023-01-16T04:44:08;97130.28;;;3.60;100.00
65754;BME280;52488;47.502;18.940;2023-01-16T04:45:11;97126.00;;;3.57;100.00
65754;BME280;52488;47.502;18.940;2023-01-16T04:46:14;97130.38;;;3.52;100.00
65754;BME280;52488;47.502;18.940;2023-01-16T04:47:17;97126.22;;;3.51;100.00
65754;BME280;52488;47.502;18.940;2023-01-16T04:48:20;97115.75;;;3.48;100.00
65754;BME280;52488;47.502;18.940;2023-01-16T04:49:23;97117.75;;;3.47;100.00
65754;BME280;52488;47.502;18.940;2023-01-16T04:50:26;97115.59;;;3.46;100.00
65754;BME280;52488;47.502;18.940;2023-01-16T04:51:29;97110.88;;;3.46;100.00
65754;BME280;52488;47.502;18.940;2023-01-16T04:52:33;97117.75;;;3.47;100.00
65754;BME280;52488;47.502;18.940;2023-01-16T04:53:35;97114.69;;;3.43;100.00
65754;BME280;52488;47.502;18.940;2023-01-16T04:54:38;97103.69;;;3.41;100.00
65754;BME280;52488;47.502;18.940;2023-01-16T04:55:41;97116.38;;;3.38;100.00
65754;BME280;52488;47.502;18.940;2023-01-16T04:56:44;97110.78;;;3.36;100.00
65754;BME280;52488;47.502;18.940;2023-01-16T04:57:50;97110.63;;;3.34;100.00
65754;BME280;52488;47.502;18.940;2023-01-16T04:58:54;97110.63;;;3.34;100.00
65754;BME280;52488;47.502;18.940;2023-01-16T04:59:57;97111.91;;;3.33;100.00
65754;BME280;52488;47.502;18.940;2023-01-16T05:01:00;97109.75;;;3.32;100.00
65754;BME280;52488;47.502;18.940;2023-01-16T05:02:03;97102.16;;;3.30;100.00
65754;BME280;52488;47.502;18.940;2023-01-16T05:03:06;97106.88;;;3.30;100.00
65754;BME280;52488;47.502;18.940;2023-01-16T05:04:09;97102.00;;;3.28;100.00
65754;BME280;52488;47.502;18.940;2023-01-16T05:05:14;97107.59;;;3.30;100.00
65754;BME280;52488;47.502;18.940;2023-01-16T05:06:17;97092.72;;;3.31;100.00
65754;BME280;52488;47.502;18.940;2023-01-16T05:07:20;97097.22;;;3.36;100.00
65754;BME280;52488;47.502;18.940;2023-01-16T05:08:23;97095.06;;;3.35;100.00
65754;BME280;52488;47.502;18.940;2023-01-16T05:09:30;97086.50;;;3.38;100.00
65754;BME280;52488;47.502;18.940;2023-01-16T05:10:32;97091.41;;;3.40;100.00
65754;BME280;52488;47.502;18.940;2023-01-16T05:11:35;97087.25;;;3.39;100.00
65754;BME280;52488;47.502;18.940;2023-01-16T05:12:38;97089.41;;;3.40;100.00
65754;BME280;52488;47.502;18.940;2023-01-16T05:13:43;97081.97;;;3.41;100.00
65754;BME280;52488;47.502;18.940;2023-01-16T05:14:46;97081.25;;;3.40;100.00
65754;BME280;52488;47.502;18.940;2023-01-16T05:15:49;97083.97;;;3.40;100.00
65754;BME280;52488;47.502;18.940;2023-01-16T05:16:52;97078.94;;;3.37;100.00
65754;BME280;52488;47.502;18.940;2023-01-16T05:17:55;97082.22;;;3.35;100.00
65754;BME280;52488;47.502;18.940;2023-01-16T05:18:59;97077.50;;;3.36;100.00
65754;BME280;52488;47.502;18.940;2023-01-16T05:20:02;97080.59;;;3.32;100.00
65754;BME280;52488;47.502;18.940;2023-01-16T05:21:05;97075.56;;;3.29;100.00
65754;BME280;52488;47.502;18.940;2023-01-16T05:22:08;97086.44;;;3.29;100.00
65754;BME280;52488;47.502;18.940;2023-01-16T05:23:11;97096.56;;;3.28;100.00
65754;BME280;52488;47.502;18.940;2023-01-16T05:24:14;97095.84;;;3.28;100.00
65754;BME280;52488;47.502;18.940;2023-01-16T05:25:16;97092.97;;;3.26;100.00
65754;BME280;52488;47.502;18.940;2023-01-16T05:26:20;97088.97;;;3.27;100.00
65754;BME280;52488;47.502;18.940;2023-01-16T05:27:23;97088.81;;;3.25;100.00
65754;BME280;52488;47.502;18.940;2023-01-16T05:28:26;97092.97;;;3.26;100.00
65754;BME280;52488;47.502;18.940;2023-01-16T05:29:29;97088.25;;;3.26;100.00
65754;BME280;52488;47.502;18.940;2023-01-16T05:30:32;97080.69;;;3.25;100.00
65754;BME280;52488;47.502;18.940;2023-01-16T05:31:35;97077.56;;;3.28;100.00
65754;BME280;52488;47.502;18.940;2023-01-16T05:32:38;97071.59;;;3.30;100.00
65754;BME280;52488;47.502;18.940;2023-01-16T05:33:41;97068.16;;;3.29;100.00
65754;BME280;52488;47.502;18.940;2023-01-16T05:34:43;97077.72;;;3.30;100.00
65754;BME280;52488;47.502;18.940;2023-01-16T05:35:47;97076.44;;;3.31;100.00
65754;BME280;52488;47.502;18.940;2023-01-16T05:36:50;97074.44;;;3.32;100.00
65754;BME280;52488;47.502;18.940;2023-01-16T05:37:53;97066.87;;;3.30;100.00
65754;BME280;52488;47.502;18.940;2023-01-16T05:38:56;97073.72;;;3.31;100.00
65754;BME280;52488;47.502;18.940;2023-01-16T05:39:59;97072.44;;;3.32;100.00
65754;BME280;52488;47.502;18.940;2023-01-16T05:41:02;97076.44;;;3.31;100.00
65754;BME280;52488;47.502;18.940;2023-01-16T05:42:05;97069.03;;;3.32;100.00
65754;BME280;52488;47.502;18.940;2023-01-16T05:43:24;97067.19;;;3.34;100.00
65754;BME280;52488;47.502;18.940;2023-01-16T05:44:26;97072.63;;;3.34;100.00
65754;BME280;52488;47.502;18.940;2023-01-16T05:45:30;97063.78;;;3.34;100.00
65754;BME280;52488;47.502;18.940;2023-01-16T05:46:33;97064.50;;;3.34;100.00
65754;BME280;52488;47.502;18.940;2023-01-16T05:47:36;97075.34;;;3.34;100.00
65754;BME280;52488;47.502;18.940;2023-01-16T05:48:39;97068.47;;;3.33;100.00
65754;BME280;52488;47.502;18.940;2023-01-16T05:49:42;97064.88;;;3.31;100.00
65754;BME280;52488;47.502;18.940;2023-01-16T05:50:45;97074.87;;;3.28;100.00
65754;BME280;52488;47.502;18.940;2023-01-16T05:51:48;97076.28;;;3.29;100.00
65754;BME280;52488;47.502;18.940;2023-01-16T05:52:52;97077.56;;;3.28;100.00
65754;BME280;52488;47.502;18.940;2023-01-16T05:53:54;97076.13;;;3.27;100.00
65754;BME280;52488;47.502;18.940;2023-01-16T05:54:57;97081.00;;;3.29;100.00
65754;BME280;52488;47.502;18.940;2023-01-16T05:56:08;97094.16;;;3.32;100.00
65754;BME280;52488;47.502;18.940;2023-01-16T05:57:12;97089.63;;;3.35;100.00
65754;BME280;52488;47.502;18.940;2023-01-16T05:58:16;97096.16;;;3.32;100.00
65754;BME280;52488;47.502;18.940;2023-01-16T05:59:19;97088.59;;;3.30;100.00
65754;BME280;52488;47.502;18.940;2023-01-16T06:00:22;97088.59;;;3.30;100.00
65754;BME280;52488;47.502;18.940;2023-01-16T06:01:25;97087.16;;;3.29;100.00
65754;BME280;52488;47.502;18.940;2023-01-16T06:02:28;97092.91;;;3.33;100.00
65754;BME280;52488;47.502;18.940;2023-01-16T06:03:31;97089.44;;;3.33;100.00
65754;BME280;52488;47.502;18.940;2023-01-16T06:04:34;97094.88;;;3.33;100.00
65754;BME280;52488;47.502;18.940;2023-01-16T06:05:37;97085.88;;;3.30;100.00
65754;BME280;52488;47.502;18.940;2023-01-16T06:06:40;97085.50;;;3.34;100.00
65754;BME280;52488;47.502;18.940;2023-01-16T06:07:42;97086.69;;;3.40;100.00
65754;BME280;52488;47.502;18.940;2023-01-16T06:08:46;97085.78;;;3.38;100.00
65754;BME280;52488;47.502;18.940;2023-01-16T06:09:49;97086.91;;;3.35;100.00
65754;BME280;52488;47.502;18.940;2023-01-16T06:10:52;97081.31;;;3.33;100.00
65754;BME280;52488;47.502;18.940;2023-01-16T06:11:55;97085.72;;;3.28;100.00
65754;BME280;52488;47.502;18.940;2023-01-16T06:13:00;97084.81;;;3.26;100.00
65754;BME280;52488;47.502;18.940;2023-01-16T06:14:03;97073.63;;;3.22;100.00
65754;BME280;52488;47.502;18.940;2023-01-16T06:15:07;97077.97;;;3.25;100.00
65754;BME280;52488;47.502;18.940;2023-01-16T06:16:10;97076.69;;;3.26;100.00
65754;BME280;52488;47.502;18.940;2023-01-16T06:17:14;97081.25;;;3.23;100.00
65754;BME280;52488;47.502;18.940;2023-01-16T06:18:18;97080.34;;;3.21;100.00
65754;BME280;52488;47.502;18.940;2023-01-16T06:19:21;97072.78;;;3.19;100.00
65754;BME280;52488;47.502;18.940;2023-01-16T06:20:24;97072.78;;;3.19;100.00
65754;BME280;52488;47.502;18.940;2023-01-16T06:21:27;97070.06;;;3.19;100.00
65754;BME280;52488;47.502;18.940;2023-01-16T06:22:30;97061.91;;;3.19;100.00
65754;BME280;52488;47.502;18.940;2023-01-16T06:23:33;97058.47;;;3.18;100.00
65754;BME280;52488;47.502;18.940;2023-01-16T06:24:36;97061.34;;;3.21;100.00
65754;BME280;52488;47.502;18.940;2023-01-16T06:25:39;97057.34;;;3.22;100.00
65754;BME280;52488;47.502;18.940;2023-01-16T06:26:41;97063.53;;;3.22;100.00
65754;BME280;52488;47.502;18.940;2023-01-16T06:27:49;97061.13;;;3.26;100.00
65754;BME280;52488;47.502;18.940;2023-01-16T06:28:52;97052.97;;;3.26;100.00
65754;BME280;52488;47.502;18.940;2023-01-16T06:29:55;97048.97;;;3.27;100.00